ZBSJ Airport Information

Runway Information
Runway 15 Length 11155 ft width 148 ft
Elevation 233 ft Threshold 0 ft Heading 147
Runway 33 Length 11155 ft Width 148 ft
Elevation 220 ft Threshold 0 ft Heading 327
Airport Frequencies
Type TWR Name SHIJIAZHUA Frequency 118.35 MHZ
Airport Navaids
Type NDB Name Wuji Frequency 272 KHZ
Type NDB Name Xingtang Frequency 235 KHZ
Type VOR-DME Name Zhengding Frequency 117700 KHZ
Airport Weather Information & NOTAM
ADDS - METARS form results

(0202 UTC 22 January 2019)
Data provider http://aviationweather.gov/metar/data/
 
Forecast for: ZBSJ (ZHENGDING , CN)
Text: TAF ZBSJ 211904Z 2200/2224 27004MPS 3500 HZ NSC TX08/2206Z TNM08/21Z
Forecast period: 0000 UTC 22 January 2019 to 0000 UTC 23 January 2019
Forecast type: FROM: standard forecast or significant change
Winds: from the W (270 degrees) at 9 MPH (8 knots; 4.1 m/s)
Visibility: 2.17 miles (3.49 km)
Ceiling: unknown
Clouds: missing
Weather: HZ  (haze)